createdAt,value
2018-08-04T00:03:59.988Z,2.67
2018-08-04T00:09:07.674Z,3.37
2018-08-04T00:14:12.833Z,3.07
2018-08-04T00:19:17.528Z,3.77
2018-08-04T00:24:23.164Z,3.13
2018-08-04T00:29:27.959Z,3.20
2018-08-04T00:34:32.639Z,3.30
2018-08-04T00:39:37.923Z,3.03
2018-08-04T00:44:42.143Z,2.80
2018-08-04T00:49:46.808Z,3.20
2018-08-04T00:54:51.125Z,3.10
2018-08-04T00:59:55.626Z,2.47
2018-08-04T01:05:00.256Z,3.07
2018-08-04T01:10:05.534Z,2.63
2018-08-04T01:15:10.337Z,3.33
2018-08-04T01:20:15.865Z,2.80
2018-08-04T01:25:20.662Z,3.30
2018-08-04T01:30:25.339Z,2.83
2018-08-04T01:35:30.022Z,2.50
2018-08-04T01:40:34.708Z,2.70
2018-08-04T01:45:39.529Z,2.57
2018-08-04T01:50:44.127Z,2.90
2018-08-04T01:55:48.878Z,2.93
2018-08-04T02:00:53.430Z,2.67
2018-08-04T02:05:58.047Z,2.90
2018-08-04T02:11:02.686Z,2.50
2018-08-04T02:16:07.357Z,2.50
2018-08-04T02:21:12.053Z,2.80
2018-08-04T02:26:17.084Z,2.40
2018-08-04T02:31:21.765Z,2.77
2018-08-04T02:36:26.444Z,2.47
2018-08-04T02:41:32.803Z,2.60
2018-08-04T02:46:37.493Z,2.40
2018-08-04T02:51:42.172Z,2.80
2018-08-04T02:56:46.970Z,2.67
2018-08-04T03:01:52.011Z,3.00
2018-08-04T03:06:56.699Z,2.53
2018-08-04T03:12:01.746Z,2.57
2018-08-04T03:17:06.538Z,2.73
2018-08-04T03:22:11.229Z,2.50
2018-08-04T03:27:16.020Z,2.43
2018-08-04T03:32:20.713Z,2.50
2018-08-04T03:37:25.626Z,3.17
2018-08-04T03:42:30.310Z,2.70
2018-08-04T03:47:35.109Z,2.63
2018-08-04T03:52:39.911Z,2.57
2018-08-04T03:57:44.595Z,2.97
2018-08-04T04:02:49.274Z,2.97
2018-08-04T04:07:53.956Z,2.37
2018-08-04T04:12:58.523Z,3.00
2018-08-04T04:18:03.342Z,2.63
2018-08-04T04:23:08.005Z,2.37
2018-08-04T04:28:12.804Z,2.17
2018-08-04T04:33:17.490Z,2.30
2018-08-04T04:38:21.606Z,2.23
2018-08-04T04:43:26.129Z,2.30
2018-08-04T04:48:30.707Z,2.60
2018-08-04T04:53:35.497Z,2.53
2018-08-04T04:58:40.056Z,2.40
2018-08-04T05:03:44.740Z,2.33
2018-08-04T05:08:49.500Z,2.43
2018-08-04T05:13:54.106Z,2.27
2018-08-04T05:18:59.266Z,2.57
2018-08-04T05:24:03.950Z,1.83
2018-08-04T05:29:08.571Z,2.43
2018-08-04T05:34:13.430Z,2.50
2018-08-04T05:39:19.082Z,2.43
2018-08-04T05:44:23.754Z,2.13
2018-08-04T05:49:28.315Z,2.00
2018-08-04T05:54:32.877Z,2.60
2018-08-04T05:59:37.682Z,2.50
2018-08-04T06:04:42.412Z,2.57
2018-08-04T06:09:47.045Z,2.23
2018-08-04T06:14:51.852Z,1.70
2018-08-04T06:19:57.368Z,2.30
2018-08-04T06:25:01.992Z,2.07
2018-08-04T06:30:08.172Z,2.00
2018-08-04T06:35:12.859Z,2.30
2018-08-04T06:40:17.418Z,2.13
2018-08-04T06:45:22.039Z,2.10
2018-08-04T06:50:26.539Z,2.10
2018-08-04T06:55:31.224Z,2.70
2018-08-04T07:00:36.502Z,2.13
2018-08-04T07:05:41.067Z,2.07
2018-08-04T07:10:45.752Z,2.53
2018-08-04T07:15:51.632Z,2.70
2018-08-04T07:20:56.210Z,1.80
2018-08-04T07:26:00.171Z,2.40
2018-08-04T07:31:04.839Z,2.53
2018-08-04T07:36:09.521Z,2.87
2018-08-04T07:41:14.438Z,2.07
2018-08-04T07:46:19.244Z,2.40
2018-08-04T07:51:26.008Z,2.33
2018-08-04T07:56:32.083Z,2.60
2018-08-04T08:01:37.134Z,2.37
2018-08-04T08:06:41.812Z,2.57
2018-08-04T08:11:46.610Z,2.83
2018-08-04T08:17:16.110Z,2.40
2018-08-04T08:22:41.417Z,2.37
2018-08-04T08:27:48.208Z,2.17
2018-08-04T08:32:56.590Z,1.77
2018-08-04T08:38:36.547Z,1.77
2018-08-04T08:43:42.460Z,1.80
2018-08-04T08:48:52.347Z,1.90
2018-08-04T08:53:58.232Z,1.70
2018-08-04T08:59:03.078Z,1.67
2018-08-04T09:04:08.448Z,1.70
2018-08-04T09:09:14.006Z,1.60
2018-08-04T09:14:18.561Z,1.70
2018-08-04T09:19:23.355Z,1.60
2018-08-04T09:24:27.917Z,1.50
2018-08-04T09:29:32.021Z,1.60
2018-08-04T09:34:36.617Z,1.53
2018-08-04T09:39:41.488Z,1.67
2018-08-04T09:44:46.231Z,1.47
2018-08-04T09:49:50.966Z,1.57
2018-08-04T09:54:56.008Z,1.23
2018-08-04T10:00:00.813Z,1.60
2018-08-04T10:05:05.730Z,1.20
2018-08-04T10:10:12.105Z,1.50
2018-08-04T10:15:16.777Z,1.63
2018-08-04T10:20:21.515Z,1.57
2018-08-04T10:25:26.139Z,1.80
2018-08-04T10:30:30.826Z,1.40
2018-08-04T10:35:35.622Z,1.50
2018-08-04T10:40:40.360Z,1.50
2018-08-04T10:45:44.987Z,1.60
2018-08-04T10:50:49.308Z,1.60
2018-08-04T10:55:53.632Z,1.67
2018-08-04T11:00:58.314Z,1.60
2018-08-04T11:06:03.114Z,1.70
2018-08-04T11:11:08.281Z,1.43
2018-08-04T11:16:13.076Z,1.70
2018-08-04T11:21:17.760Z,1.40
2018-08-04T11:26:22.454Z,1.60
2018-08-04T11:31:27.258Z,1.67
2018-08-04T11:36:32.285Z,1.63
2018-08-04T11:41:36.991Z,1.70
2018-08-04T11:46:41.654Z,1.90
2018-08-04T11:51:47.050Z,1.70
2018-08-04T11:56:51.616Z,1.77
2018-08-04T12:01:56.354Z,1.67
2018-08-04T12:07:01.351Z,1.57
2018-08-04T12:12:06.035Z,2.03
2018-08-04T12:17:10.723Z,2.03
2018-08-04T12:22:15.752Z,1.80
2018-08-04T12:27:20.516Z,1.77
2018-08-04T12:32:25.374Z,1.70
2018-08-04T12:37:30.171Z,1.50
2018-08-04T12:42:35.699Z,1.90
2018-08-04T12:47:40.231Z,2.30
2018-08-04T12:52:44.921Z,1.90
2018-08-04T12:57:49.713Z,1.60
2018-08-04T13:02:54.638Z,1.50
2018-08-04T13:08:00.276Z,1.97
2018-08-04T13:13:04.505Z,1.60
2018-08-04T13:18:09.818Z,1.87
2018-08-04T13:23:14.444Z,1.80
2018-08-04T13:28:19.018Z,2.20
2018-08-04T13:33:23.692Z,2.40
2018-08-04T13:38:28.607Z,1.90
2018-08-04T13:43:33.773Z,1.90
2018-08-04T13:48:39.414Z,2.00
2018-08-04T13:53:43.656Z,1.90
2018-08-04T13:58:48.295Z,2.00
2018-08-04T14:03:53.153Z,2.00
2018-08-04T14:08:57.839Z,2.00
2018-08-04T14:14:03.444Z,1.50
2018-08-04T14:19:08.227Z,1.60
2018-08-04T14:24:14.344Z,1.90
2018-08-04T14:29:19.087Z,1.50
2018-08-04T14:34:24.193Z,1.80
2018-08-04T14:39:29.185Z,1.40
2018-08-04T14:44:33.910Z,1.43
2018-08-04T14:49:38.496Z,1.43
2018-08-04T14:54:43.045Z,1.33
2018-08-04T14:59:47.611Z,1.80
2018-08-04T15:04:52.320Z,1.73
2018-08-04T15:09:57.120Z,1.50
2018-08-04T15:15:02.129Z,1.60
2018-08-04T15:20:07.421Z,2.00
2018-08-04T15:25:12.328Z,1.87
2018-08-04T15:30:17.126Z,1.90
2018-08-04T15:35:21.931Z,1.50
2018-08-04T15:40:26.732Z,1.93
2018-08-04T15:45:30.953Z,1.60
2018-08-04T15:50:35.384Z,1.60
2018-08-04T15:55:40.431Z,1.30
2018-08-04T16:00:45.222Z,1.47
2018-08-04T16:05:50.144Z,1.50
2018-08-04T16:10:55.425Z,1.63
2018-08-04T16:16:00.107Z,1.73
2018-08-04T16:21:05.388Z,1.57
2018-08-04T16:26:10.786Z,1.60
2018-08-04T16:31:15.612Z,1.43
2018-08-04T16:36:20.639Z,1.70
2018-08-04T16:41:26.288Z,1.70
2018-08-04T16:46:31.201Z,1.97
2018-08-04T16:51:36.018Z,2.47
2018-08-04T16:56:40.937Z,2.20
2018-08-04T17:01:45.727Z,2.10
2018-08-04T17:06:50.584Z,2.50
2018-08-04T17:11:55.460Z,2.00
2018-08-04T17:17:00.124Z,2.30
2018-08-04T17:22:05.106Z,2.03
2018-08-04T17:27:10.095Z,2.20
2018-08-04T17:32:15.016Z,2.23
2018-08-04T17:37:19.866Z,2.03
2018-08-04T17:42:24.854Z,2.30
2018-08-04T17:47:29.669Z,2.40
2018-08-04T17:52:34.460Z,2.07
2018-08-04T17:57:39.264Z,2.10
2018-08-04T18:02:44.439Z,2.10
2018-08-04T18:07:49.364Z,2.30
2018-08-04T18:12:54.267Z,2.37
2018-08-04T18:17:59.195Z,2.17
2018-08-04T18:23:03.989Z,2.33
2018-08-04T18:28:08.672Z,2.20
2018-08-04T18:33:13.477Z,2.20
2018-08-04T18:38:18.275Z,2.17
2018-08-04T18:43:23.196Z,2.33
2018-08-04T18:48:27.998Z,2.33
2018-08-04T18:53:32.677Z,2.57
2018-08-04T18:58:38.002Z,3.23
2018-08-04T19:03:42.898Z,3.93
2018-08-04T19:08:47.564Z,2.60
2018-08-04T19:13:52.486Z,2.47
2018-08-04T19:18:57.171Z,1.87
2018-08-04T19:24:01.979Z,2.30
2018-08-04T19:29:06.654Z,1.97
2018-08-04T19:34:11.340Z,2.10
2018-08-04T19:39:16.078Z,2.33
2018-08-04T19:44:20.941Z,2.20
2018-08-04T19:49:26.219Z,1.63
2018-08-04T19:54:30.901Z,1.60
2018-08-04T19:59:35.586Z,1.57
2018-08-04T20:04:40.081Z,1.60
2018-08-04T20:09:45.196Z,1.70
2018-08-04T20:14:50.866Z,1.87
2018-08-04T20:19:55.869Z,1.63
2018-08-04T20:25:00.800Z,1.90
2018-08-04T20:30:05.158Z,2.00
2018-08-04T20:35:10.397Z,1.70
2018-08-04T20:40:15.315Z,1.80
2018-08-04T20:45:20.378Z,1.93
2018-08-04T20:50:25.042Z,1.80
2018-08-04T20:55:29.843Z,1.83
2018-08-04T21:00:38.962Z,1.90
2018-08-04T21:05:43.764Z,2.00
2018-08-04T21:10:48.812Z,1.90
2018-08-04T21:15:53.745Z,2.30
2018-08-04T21:20:58.656Z,1.90
2018-08-04T21:26:03.336Z,2.00
2018-08-04T21:31:08.857Z,2.27
2018-08-04T21:36:13.539Z,1.90
2018-08-04T22:27:36.012Z,2.27
2018-08-04T22:32:41.519Z,2.43
2018-08-04T22:37:47.410Z,2.67
2018-08-04T22:42:52.200Z,2.77
2018-08-04T22:47:57.060Z,3.00
2018-08-04T22:53:01.837Z,3.07
2018-08-04T22:58:06.726Z,3.20
2018-08-04T23:03:12.380Z,3.37
2018-08-04T23:08:17.058Z,3.23
2018-08-04T23:13:21.860Z,3.30
2018-08-04T23:18:26.656Z,3.73
2018-08-04T23:23:32.177Z,4.70
2018-08-04T23:28:37.102Z,4.43
2018-08-04T23:33:41.423Z,4.90
2018-08-04T23:38:46.704Z,4.97
2018-08-04T23:43:52.825Z,6.77
2018-08-04T23:48:57.512Z,6.00
2018-08-04T23:54:02.307Z,6.20
2018-08-04T23:59:07.356Z,6.37
